Time;durP1;ratioP1;P1;durP2;ratioP2;P2;SDS_P1;SDS_P2;PMS_P1;PMS_P2;Temp;Humidity;BMP_temperature;BMP_pressure;BME280_temperature;BME280_humidity;BME280_pressure;Samples;Min_cycle;Max_cycle;Signal;HPM_P1;HPM_P2
2021/05/07 00:01:06;;;;;;;17.02;10.85;;;7.10;82.30;;;;;;4995846;28;20038;-89
2021/05/07 00:03:32;;;;;;;17.60;9.57;;;7.10;82.50;;;;;;5012252;28;20049;-90
2021/05/07 00:05:58;;;;;;;13.00;7.68;;;7.00;82.50;;;;;;4995693;28;20069;-90
2021/05/07 00:08:28;;;;;;;13.45;8.80;;;7.00;82.60;;;;;;4995700;28;20029;-90
2021/05/07 00:10:55;;;;;;;13.00;8.55;;;6.90;82.90;;;;;;4995852;28;20076;-90
2021/05/07 00:13:22;;;;;;;16.77;10.20;;;6.90;83.10;;;;;;4995539;28;20578;-90
2021/05/07 00:15:48;;;;;;;12.73;8.65;;;6.90;83.30;;;;;;4995554;28;20026;-90
2021/05/07 00:18:14;;;;;;;18.83;10.45;;;6.80;83.30;;;;;;4995512;28;20048;-89
2021/05/07 00:20:39;;;;;;;12.98;8.50;;;6.80;83.70;;;;;;4995360;28;20446;-90
2021/05/07 00:23:05;;;;;;;11.68;7.57;;;6.70;83.80;;;;;;4995327;28;20037;-88
2021/05/07 00:25:31;;;;;;;12.38;7.03;;;6.70;83.70;;;;;;4996088;28;20419;-88
2021/05/07 00:28:04;;;;;;;17.48;10.73;;;6.70;83.60;;;;;;4996078;28;20053;-88
2021/05/07 00:30:31;;;;;;;19.48;10.88;;;6.70;84.20;;;;;;4996108;28;20026;-88
2021/05/07 00:32:57;;;;;;;15.13;9.57;;;6.60;84.40;;;;;;4996147;28;20025;-87
2021/05/07 00:35:23;;;;;;;14.35;10.32;;;6.50;84.90;;;;;;4996146;28;20065;-88
2021/05/07 00:37:49;;;;;;;14.95;9.45;;;6.50;85.50;;;;;;4995750;28;20029;-88
2021/05/07 00:40:16;;;;;;;18.75;10.35;;;6.40;85.80;;;;;;4995568;28;20037;-87
2021/05/07 00:42:42;;;;;;;20.67;11.10;;;6.30;86.50;;;;;;4995293;28;20034;-88
2021/05/07 00:45:09;;;;;;;15.38;10.13;;;6.20;87.30;;;;;;4995611;28;20180;-87
2021/05/07 00:47:57;;;;;;;20.13;10.98;;;6.10;87.70;;;;;;5012913;28;20037;-88
2021/05/07 00:50:31;;;;;;;17.73;10.15;;;6.10;88.30;;;;;;5018607;28;20046;-87
2021/05/07 00:52:58;;;;;;;15.95;10.90;;;6.00;88.90;;;;;;5021066;28;20018;-87
2021/05/07 00:55:25;;;;;;;16.35;10.32;;;5.90;89.10;;;;;;5035253;28;20018;-87
2021/05/07 00:57:50;;;;;;;17.63;11.55;;;5.90;89.40;;;;;;5037662;28;20018;-87
2021/05/07 01:00:17;;;;;;;20.63;12.50;;;5.80;89.70;;;;;;5020411;28;20081;-87
2021/05/07 01:02:43;;;;;;;15.85;10.43;;;5.80;90.00;;;;;;5020120;28;20029;-88
2021/05/07 01:05:09;;;;;;;13.93;9.40;;;5.80;90.10;;;;;;5037233;28;20058;-87
2021/05/07 01:07:36;;;;;;;17.90;11.23;;;5.70;90.60;;;;;;5020139;28;20026;-89
2021/05/07 01:10:07;;;;;;;14.07;9.43;;;5.70;90.40;;;;;;5017021;28;20048;-89
2021/05/07 01:12:35;;;;;;;15.60;9.20;;;5.70;90.60;;;;;;4995261;28;20074;-89
2021/05/07 01:15:12;;;;;;;15.40;10.43;;;5.60;90.60;;;;;;4995021;28;20376;-89
2021/05/07 01:17:45;;;;;;;15.45;9.63;;;5.50;90.80;;;;;;4995141;28;20026;-89
2021/05/07 01:20:19;;;;;;;14.95;9.75;;;5.50;91.00;;;;;;4995093;28;20030;-89
2021/05/07 01:22:47;;;;;;;15.15;9.85;;;5.50;91.00;;;;;;5012465;28;20036;-90
2021/05/07 01:25:16;;;;;;;13.77;8.43;;;5.50;91.10;;;;;;4994907;28;20022;-90
2021/05/07 01:27:43;;;;;;;15.85;9.65;;;5.50;91.40;;;;;;4994942;28;20032;-90
2021/05/07 01:30:17;;;;;;;14.82;8.90;;;5.40;91.40;;;;;;4995097;28;20037;-89
2021/05/07 01:32:43;;;;;;;10.82;7.65;;;5.40;91.60;;;;;;4995375;28;20128;-89
2021/05/07 01:35:22;;;;;;;11.68;7.55;;;5.50;91.90;;;;;;4996117;28;20490;-90
2021/05/07 01:37:51;;;;;;;13.45;8.90;;;5.50;91.70;;;;;;4998363;28;20030;-90
2021/05/07 01:40:24;;;;;;;13.05;8.73;;;5.50;91.60;;;;;;4998132;28;20072;-89
2021/05/07 01:42:51;;;;;;;11.82;8.30;;;5.50;91.60;;;;;;4997886;28;20562;-89
2021/05/07 01:45:19;;;;;;;12.63;7.80;;;5.40;91.40;;;;;;4998106;28;20119;-90
2021/05/07 01:47:46;;;;;;;12.02;7.93;;;5.40;91.70;;;;;;4997987;28;20253;-89
2021/05/07 01:50:13;;;;;;;11.90;8.48;;;5.40;91.90;;;;;;5017404;28;20030;-89
2021/05/07 01:52:39;;;;;;;11.60;7.88;;;5.40;91.90;;;;;;5015477;28;20466;-89
2021/05/07 01:55:14;;;;;;;11.45;8.48;;;5.40;91.90;;;;;;4998045;28;20152;-89
2021/05/07 01:57:41;;;;;;;9.45;7.45;;;5.40;92.20;;;;;;4996322;28;20032;-89
2021/05/07 02:00:12;;;;;;;12.35;9.40;;;5.30;92.10;;;;;;4982522;28;20094;-90
2021/05/07 02:02:39;;;;;;;12.05;9.25;;;5.30;92.50;;;;;;4997802;28;20119;-90
2021/05/07 02:05:06;;;;;;;18.85;9.77;;;5.40;92.80;;;;;;4992848;28;20041;-90
2021/05/07 02:07:32;;;;;;;19.05;12.15;;;5.40;92.90;;;;;;4991295;28;20018;-90
2021/05/07 02:09:58;;;;;;;18.02;12.32;;;5.40;93.30;;;;;;5005348;28;20026;-90
2021/05/07 02:12:23;;;;;;;22.98;13.38;;;5.40;93.50;;;;;;4992403;28;20454;-89
2021/05/07 02:14:50;;;;;;;19.15;14.32;;;5.40;93.70;;;;;;4998006;28;20038;-89
2021/05/07 02:17:16;;;;;;;23.05;15.15;;;5.50;93.90;;;;;;4985768;28;20483;-90
2021/05/07 02:19:42;;;;;;;27.77;17.45;;;5.50;94.10;;;;;;4978413;28;20061;-90
2021/05/07 02:22:08;;;;;;;20.85;14.57;;;5.50;94.10;;;;;;4981144;28;20070;-89
2021/05/07 02:24:34;;;;;;;27.25;17.10;;;5.50;94.00;;;;;;5011746;28;20057;-89
2021/05/07 02:26:59;;;;;;;22.27;16.60;;;5.50;94.20;;;;;;4993821;28;20034;-89
2021/05/07 02:29:25;;;;;;;26.85;18.23;;;5.50;94.20;;;;;;4995642;28;20490;-89
2021/05/07 02:31:51;;;;;;;31.27;20.67;;;5.50;94.50;;;;;;4990901;28;20061;-90
2021/05/07 02:34:17;;;;;;;34.63;22.10;;;5.50;94.90;;;;;;4978315;28;20030;-90
2021/05/07 02:36:42;;;;;;;28.60;20.38;;;5.50;95.10;;;;;;4978383;28;20035;-90
2021/05/07 02:39:09;;;;;;;29.17;20.60;;;5.50;95.10;;;;;;4978634;28;20511;-90
2021/05/07 02:41:38;;;;;;;29.27;19.63;;;5.50;95.30;;;;;;4978337;28;20040;-90
2021/05/07 02:44:05;;;;;;;27.63;17.63;;;5.40;95.40;;;;;;4977695;28;20054;-89
2021/05/07 02:46:35;;;;;;;25.75;17.20;;;5.40;95.40;;;;;;4977308;28;20035;-89
2021/05/07 02:49:05;;;;;;;24.15;15.68;;;5.40;95.40;;;;;;4979439;28;20030;-90
2021/05/07 02:51:32;;;;;;;24.10;15.98;;;5.50;95.50;;;;;;4989197;28;20037;-89
2021/05/07 02:54:02;;;;;;;22.65;15.65;;;5.50;95.40;;;;;;4996316;28;20480;-89
2021/05/07 02:56:28;;;;;;;21.98;14.80;;;5.50;95.30;;;;;;4996404;28;20402;-89
2021/05/07 02:58:54;;;;;;;19.85;13.88;;;5.50;95.40;;;;;;4996738;28;20018;-90
2021/05/07 03:01:20;;;;;;;21.40;13.40;;;5.50;95.30;;;;;;5013152;28;20412;-90
2021/05/07 03:03:46;;;;;;;19.05;13.13;;;5.60;95.20;;;;;;5013961;28;20364;-89
2021/05/07 03:06:12;;;;;;;22.08;13.95;;;5.70;95.20;;;;;;4997092;28;20038;-89
2021/05/07 03:08:38;;;;;;;18.40;12.98;;;5.70;95.10;;;;;;4996050;28;20502;-89
2021/05/07 03:11:05;;;;;;;20.23;12.98;;;5.70;95.10;;;;;;4995258;28;20041;-90
2021/05/07 03:13:30;;;;;;;20.13;13.13;;;5.80;95.10;;;;;;4998266;28;20024;-88
2021/05/07 03:15:57;;;;;;;20.30;14.43;;;5.80;95.00;;;;;;5014952;28;20442;-89
2021/05/07 03:18:23;;;;;;;20.70;14.40;;;5.80;95.00;;;;;;5012771;28;20014;-90
2021/05/07 03:20:51;;;;;;;18.92;11.57;;;5.90;94.90;;;;;;5013404;28;20026;-89
2021/05/07 03:23:17;;;;;;;19.05;12.38;;;5.90;94.80;;;;;;5010076;28;20057;-89
2021/05/07 03:25:44;;;;;;;15.02;10.52;;;6.00;94.80;;;;;;4992577;28;20033;-90
2021/05/07 03:28:11;;;;;;;18.00;12.23;;;6.10;94.70;;;;;;4996504;28;20013;-89
2021/05/07 03:30:37;;;;;;;16.33;10.50;;;6.20;94.60;;;;;;5002925;28;20080;-89
2021/05/07 03:33:05;;;;;;;16.63;11.38;;;6.30;94.60;;;;;;4985574;28;20022;-90
2021/05/07 03:35:32;;;;;;;12.52;8.50;;;6.50;94.00;;;;;;4985859;28;20035;-90
2021/05/07 03:37:58;;;;;;;15.68;10.23;;;6.60;93.80;;;;;;4987577;28;20034;-91
2021/05/07 03:40:24;;;;;;;14.73;9.30;;;6.70;93.50;;;;;;4995323;28;20099;-89
2021/05/07 03:42:50;;;;;;;13.02;9.05;;;6.80;93.30;;;;;;5013667;28;20065;-91
2021/05/07 03:45:16;;;;;;;15.02;9.05;;;6.90;92.80;;;;;;4988130;28;20035;-90
2021/05/07 03:47:43;;;;;;;13.30;8.65;;;7.00;92.30;;;;;;4995114;28;20032;-91
2021/05/07 03:50:11;;;;;;;14.20;9.07;;;7.20;92.30;;;;;;4996615;28;20026;-90
2021/05/07 03:52:37;;;;;;;13.13;9.27;;;7.30;91.60;;;;;;4995374;28;20026;-90
2021/05/07 03:55:05;;;;;;;14.68;10.63;;;7.40;91.40;;;;;;4995109;28;20112;-91
2021/05/07 03:57:31;;;;;;;15.23;10.57;;;7.50;91.30;;;;;;4994791;28;20490;-90
2021/05/07 03:59:57;;;;;;;18.90;11.68;;;7.60;91.10;;;;;;4995564;28;20034;-90
2021/05/07 04:02:24;;;;;;;15.73;10.43;;;7.70;91.10;;;;;;4994655;28;20113;-89
2021/05/07 04:04:53;;;;;;;19.02;12.23;;;7.80;91.10;;;;;;4995438;28;20065;-90
2021/05/07 04:07:20;;;;;;;17.15;11.82;;;7.90;91.00;;;;;;5012444;28;20045;-90
2021/05/07 04:09:51;;;;;;;17.23;11.18;;;8.00;91.00;;;;;;4996217;28;20034;-89
2021/05/07 04:12:21;;;;;;;17.48;10.73;;;8.20;90.90;;;;;;4996219;28;20041;-91
2021/05/07 04:14:47;;;;;;;19.90;11.85;;;8.20;90.70;;;;;;5014779;28;20041;-91
2021/05/07 04:17:13;;;;;;;15.20;10.88;;;8.30;90.60;;;;;;4996635;28;20026;-90
2021/05/07 04:19:38;;;;;;;14.38;10.48;;;8.40;90.60;;;;;;4997340;28;20029;-92
2021/05/07 04:22:04;;;;;;;13.70;9.35;;;8.50;90.50;;;;;;4996287;28;20069;-90
2021/05/07 04:24:30;;;;;;;14.10;9.40;;;8.50;90.30;;;;;;4996294;28;20029;-91
2021/05/07 04:26:56;;;;;;;11.57;8.13;;;8.70;90.20;;;;;;4995837;28;20034;-90
2021/05/07 04:29:22;;;;;;;12.10;8.80;;;8.80;89.90;;;;;;4996672;28;20104;-91
2021/05/07 04:31:49;;;;;;;14.65;8.57;;;8.90;89.20;;;;;;4996839;28;20045;-91
2021/05/07 04:34:15;;;;;;;10.93;8.48;;;9.00;88.30;;;;;;4997375;28;20037;-91
2021/05/07 04:36:41;;;;;;;11.95;7.63;;;9.10;88.30;;;;;;4997255;28;20484;-91
2021/05/07 04:39:07;;;;;;;12.75;8.05;;;9.10;87.40;;;;;;4996229;28;20136;-90
2021/05/07 04:41:34;;;;;;;11.95;7.65;;;9.20;87.20;;;;;;4997154;28;20395;-90
2021/05/07 04:44:00;;;;;;;9.48;7.30;;;9.30;86.50;;;;;;4996908;28;20129;-91
2021/05/07 04:46:26;;;;;;;13.65;7.80;;;9.30;86.90;;;;;;4998139;28;20092;-90
2021/05/07 04:48:51;;;;;;;13.38;7.95;;;9.50;87.00;;;;;;5003853;28;20018;-89
2021/05/07 04:51:17;;;;;;;11.45;7.85;;;9.70;87.50;;;;;;5015655;28;20010;-90
2021/05/07 04:53:43;;;;;;;12.50;7.53;;;10.10;87.30;;;;;;5009580;28;20022;-92
2021/05/07 04:56:08;;;;;;;9.85;6.88;;;10.50;87.20;;;;;;5012049;28;20041;-90
2021/05/07 04:58:34;;;;;;;10.57;6.65;;;10.80;85.00;;;;;;5007959;28;20029;-92
2021/05/07 05:01:00;;;;;;;9.85;6.78;;;11.10;83.20;;;;;;5007812;28;20045;-91
2021/05/07 05:03:26;;;;;;;9.10;5.80;;;11.40;83.00;;;;;;4999569;28;20540;-91
2021/05/07 05:05:51;;;;;;;7.22;5.03;;;11.70;84.00;;;;;;5011925;28;20022;-89
2021/05/07 05:08:22;;;;;;;7.50;5.03;;;12.30;84.10;;;;;;5017381;28;20033;-89
2021/05/07 05:10:48;;;;;;;8.90;4.57;;;12.70;79.20;;;;;;4995872;28;20030;-89
2021/05/07 05:13:14;;;;;;;7.93;4.03;;;13.00;75.70;;;;;;4994642;28;20068;-89
2021/05/07 05:15:43;;;;;;;6.53;3.85;;;13.40;74.00;;;;;;4996785;28;20117;-89
2021/05/07 05:18:33;;;;;;;3.78;3.15;;;13.80;72.30;;;;;;4985427;28;20031;-90
2021/05/07 05:21:00;;;;;;;4.75;3.30;;;14.10;70.90;;;;;;4989526;28;20034;-90
2021/05/07 05:23:30;;;;;;;6.05;2.90;;;14.60;70.20;;;;;;4994997;28;20479;-90
2021/05/07 05:26:06;;;;;;;4.53;2.97;;;15.00;69.50;;;;;;4997964;28;20030;-90
2021/05/07 05:28:52;;;;;;;3.50;2.75;;;15.50;68.10;;;;;;4997777;28;20022;-90
2021/05/07 05:31:17;;;;;;;5.65;2.83;;;16.10;65.90;;;;;;4989009;28;20041;-89
2021/05/07 05:33:43;;;;;;;3.10;2.63;;;16.50;63.80;;;;;;4998355;28;20483;-91
2021/05/07 05:36:09;;;;;;;4.15;2.90;;;16.70;61.80;;;;;;5000101;28;20129;-90
2021/05/07 05:38:35;;;;;;;4.03;2.50;;;16.80;59.20;;;;;;5014012;28;20022;-90
2021/05/07 05:41:01;;;;;;;4.95;2.60;;;17.00;59.00;;;;;;4997862;28;20133;-90
2021/05/07 05:44:15;;;;;;;5.18;2.70;;;17.30;59.40;;;;;;4997230;28;20029;-90
2021/05/07 05:46:44;;;;;;;4.32;2.75;;;17.60;59.10;;;;;;4989802;28;20085;-90
2021/05/07 05:49:10;;;;;;;4.38;2.83;;;18.20;57.90;;;;;;4999050;28;20116;-90
2021/05/07 05:51:38;;;;;;;6.30;3.13;;;18.50;55.90;;;;;;4993847;28;20057;-90
2021/05/07 05:54:05;;;;;;;6.50;3.13;;;18.70;52.50;;;;;;4992890;28;20069;-90
2021/05/07 05:56:48;;;;;;;5.88;3.30;;;18.60;52.50;;;;;;4997381;28;20045;-91
2021/05/07 05:59:14;;;;;;;7.20;3.40;;;18.60;52.90;;;;;;4996578;28;20025;-91
2021/05/07 06:01:40;;;;;;;4.35;3.00;;;18.70;53.10;;;;;;4998573;28;20040;-92
2021/05/07 06:04:06;;;;;;;8.35;3.20;;;19.00;53.10;;;;;;4999115;28;20467;-90
2021/05/07 06:06:32;;;;;;;4.80;3.35;;;19.30;52.70;;;;;;4998538;28;20117;-92
2021/05/07 06:08:57;;;;;;;3.85;2.70;;;19.70;52.00;;;;;;4995726;28;20014;-92
2021/05/07 06:11:23;;;;;;;2.50;2.30;;;20.20;51.30;;;;;;4989442;28;20030;-90
2021/05/07 06:13:49;;;;;;;3.13;2.50;;;20.80;50.80;;;;;;4996741;28;20066;-91
2021/05/07 06:16:15;;;;;;;2.90;2.08;;;21.30;50.20;;;;;;4996141;28;20029;-92
2021/05/07 06:18:41;;;;;;;2.03;1.80;;;21.50;47.60;;;;;;4999262;28;20022;-90
2021/05/07 06:21:06;;;;;;;2.30;1.50;;;21.70;47.50;;;;;;4990973;28;20547;-89
2021/05/07 06:23:32;;;;;;;2.10;1.48;;;21.70;44.00;;;;;;4989448;28;20025;-91
2021/05/07 06:25:59;;;;;;;2.30;1.30;;;21.30;43.40;;;;;;4988737;28;20065;-88
2021/05/07 06:28:25;;;;;;;4.65;1.45;;;21.10;44.50;;;;;;5005859;28;20726;-88
2021/05/07 06:30:56;;;;;;;2.28;1.35;;;21.30;44.50;;;;;;4989519;28;20030;-88
2021/05/07 06:33:24;;;;;;;2.95;1.60;;;21.60;44.50;;;;;;5011620;28;20030;-87
2021/05/07 06:35:49;;;;;;;1.75;1.38;;;21.90;44.90;;;;;;4996474;28;20104;-90
2021/05/07 06:38:18;;;;;;;1.80;1.45;;;22.10;44.30;;;;;;4993908;28;20435;-90
2021/05/07 06:40:48;;;;;;;2.80;1.50;;;22.10;43.80;;;;;;4994559;28;20459;-90
2021/05/07 06:43:20;;;;;;;1.17;1.08;;;22.00;42.80;;;;;;4996331;28;20085;-90
2021/05/07 06:45:46;;;;;;;2.03;1.50;;;22.10;43.60;;;;;;4995267;28;20056;-91
2021/05/07 06:48:14;;;;;;;2.70;1.60;;;22.40;42.20;;;;;;4997182;28;20057;-90
2021/05/07 06:50:43;;;;;;;5.38;1.30;;;22.40;40.90;;;;;;5010907;28;20030;-90
2021/05/07 06:53:43;;;;;;;1.70;1.40;;;22.60;41.70;;;;;;5009194;28;20565;-91
2021/05/07 06:56:22;;;;;;;2.53;1.50;;;23.00;40.40;;;;;;5005085;28;20046;-90
2021/05/07 06:58:49;;;;;;;7.78;3.42;;;23.40;39.40;;;;;;4997686;28;20026;-89
2021/05/07 07:01:21;;;;;;;2.75;2.00;;;23.70;39.70;;;;;;4994935;28;20040;-88
2021/05/07 07:03:47;;;;;;;2.15;1.77;;;24.00;38.50;;;;;;4994568;28;20121;-90
2021/05/07 07:06:19;;;;;;;2.40;1.60;;;24.00;37.20;;;;;;4992900;28;20041;-92
2021/05/07 07:08:51;;;;;;;1.92;1.13;;;24.20;36.70;;;;;;4991729;28;20068;-89
2021/05/07 07:11:20;;;;;;;3.30;1.20;;;24.70;38.10;;;;;;5011307;28;20109;-90
2021/05/07 07:13:47;;;;;;;2.17;1.10;;;25.20;37.20;;;;;;4990036;28;20582;-90
2021/05/07 07:16:14;;;;;;;2.40;1.20;;;25.20;34.70;;;;;;4990609;28;20120;-93
2021/05/07 07:18:41;;;;;;;1.23;1.02;;;25.10;34.40;;;;;;4994057;28;20037;-89
2021/05/07 07:21:08;;;;;;;6.10;1.17;;;25.10;34.90;;;;;;4989128;28;20776;-90
2021/05/07 07:23:35;;;;;;;2.13;1.20;;;25.00;32.80;;;;;;4981467;28;20018;-89
2021/05/07 07:26:01;;;;;;;1.85;0.98;;;24.60;32.00;;;;;;4984424;28;20476;-91
2021/05/07 07:28:27;;;;;;;1.98;1.10;;;24.00;32.30;;;;;;4991324;28;20109;-89
2021/05/07 07:30:56;;;;;;;1.63;0.90;;;23.80;33.50;;;;;;4988095;28;20431;-91
2021/05/07 07:33:31;;;;;;;2.35;1.17;;;23.90;33.30;;;;;;4996197;28;20026;-89
2021/05/07 07:35:57;;;;;;;1.58;1.10;;;23.90;32.30;;;;;;4989380;28;20541;-89
2021/05/07 07:38:30;;;;;;;3.92;1.15;;;23.50;32.70;;;;;;4996406;28;20049;-91
2021/05/07 07:40:56;;;;;;;4.00;1.17;;;23.10;33.30;;;;;;4991194;28;20030;-91
2021/05/07 07:43:25;;;;;;;1.58;1.05;;;23.00;33.90;;;;;;4995604;28;20069;-90
2021/05/07 07:45:51;;;;;;;1.80;1.10;;;23.00;33.70;;;;;;4997490;28;20076;-91
2021/05/07 07:48:32;;;;;;;4.43;1.08;;;23.20;34.00;;;;;;4983931;28;20034;-92
2021/05/07 07:54:23;;;;;;;3.05;0.90;;;23.00;33.20;;;;;;5008785;28;20080;-91
2021/05/07 07:56:49;;;;;;;4.25;0.82;;;22.70;31.80;;;;;;4994380;28;20758;-92
2021/05/07 07:59:15;;;;;;;1.17;1.08;;;22.30;31.70;;;;;;4980898;28;20430;-90
2021/05/07 08:01:42;;;;;;;1.55;0.93;;;21.90;32.50;;;;;;4989258;28;20057;-90
2021/05/07 08:04:09;;;;;;;2.03;1.00;;;21.80;32.70;;;;;;4991411;28;20120;-90
2021/05/07 08:06:34;;;;;;;2.50;1.10;;;21.70;32.90;;;;;;5011492;28;20030;-90
2021/05/07 08:09:00;;;;;;;2.28;1.20;;;21.60;33.20;;;;;;5013211;28;20028;-91
2021/05/07 08:11:26;;;;;;;2.20;0.98;;;21.60;33.00;;;;;;4989668;28;20383;-89
2021/05/07 08:13:52;;;;;;;0.80;0.80;;;21.40;33.10;;;;;;4988293;28;20109;-90
2021/05/07 08:16:18;;;;;;;2.10;0.90;;;21.40;32.60;;;;;;4993079;28;20072;-89
2021/05/07 08:18:44;;;;;;;3.42;1.30;;;21.30;32.90;;;;;;4984983;28;20042;-90
2021/05/07 08:21:10;;;;;;;1.65;1.05;;;21.20;33.40;;;;;;4985456;28;20025;-90
2021/05/07 08:23:36;;;;;;;1.35;1.13;;;21.30;33.60;;;;;;5002342;28;20372;-91
2021/05/07 08:26:02;;;;;;;0.90;0.90;;;21.50;34.20;;;;;;4981630;28;20018;-90
2021/05/07 08:28:27;;;;;;;5.05;1.00;;;21.60;33.40;;;;;;4991663;28;20025;-90
2021/05/07 08:30:53;;;;;;;3.67;1.00;;;21.70;33.10;;;;;;4997476;28;20033;-90
2021/05/07 08:33:19;;;;;;;2.88;0.98;;;21.70;33.00;;;;;;4985705;28;20053;-90
2021/05/07 08:35:45;;;;;;;1.73;1.00;;;21.70;32.80;;;;;;4983371;28;20081;-92
2021/05/07 08:38:11;;;;;;;2.17;1.15;;;21.60;33.00;;;;;;4988289;28;20037;-91
2021/05/07 08:40:38;;;;;;;0.70;0.70;;;21.50;32.60;;;;;;4975497;28;20030;-89
2021/05/07 08:43:08;;;;;;;1.60;0.82;;;21.20;32.70;;;;;;5006406;28;20061;-89
2021/05/07 08:45:34;;;;;;;0.80;0.80;;;21.10;33.20;;;;;;4995247;28;20031;-91
2021/05/07 08:48:00;;;;;;;1.98;0.73;;;21.10;31.70;;;;;;4994516;28;20049;-90
2021/05/07 08:53:58;;;;;;;1.92;0.82;;;21.00;32.80;;;;;;5169723;22;20100;-91
2021/05/07 08:56:26;;;;;;;4.53;0.90;;;20.90;33.00;;;;;;5005950;28;20025;-91
2021/05/07 08:58:52;;;;;;;2.58;0.90;;;21.00;33.20;;;;;;5007852;28;20018;-93
2021/05/07 09:01:19;;;;;;;1.20;0.90;;;20.90;33.20;;;;;;5009807;28;20038;-91
2021/05/07 09:03:48;;;;;;;1.70;1.15;;;20.90;33.40;;;;;;5001601;28;20044;-92
2021/05/07 09:06:22;;;;;;;1.10;1.00;;;20.80;33.40;;;;;;5009695;28;20030;-92
2021/05/07 09:08:50;;;;;;;2.50;1.20;;;20.80;33.40;;;;;;4995474;28;20105;-92
2021/05/07 09:11:18;;;;;;;2.15;0.90;;;20.80;33.50;;;;;;4996507;28;20532;-91
2021/05/07 09:13:45;;;;;;;0.80;0.70;;;20.90;33.70;;;;;;5010884;28;20017;-91
2021/05/07 09:16:16;;;;;;;0.85;0.73;;;21.10;33.90;;;;;;5013114;28;20081;-92
2021/05/07 09:18:43;;;;;;;3.97;0.95;;;21.20;33.20;;;;;;5015827;28;20130;-92
2021/05/07 09:24:08;;;;;;;3.25;0.80;;;22.00;33.20;;;;;;4974836;28;20086;-91
2021/05/07 09:26:52;;;;;;;1.83;1.10;;;22.20;33.30;;;;;;4983886;28;20054;-88
2021/05/07 09:29:23;;;;;;;1.58;0.98;;;22.40;32.70;;;;;;4955473;28;20035;-90
2021/05/07 09:31:51;;;;;;;2.05;0.88;;;22.30;32.70;;;;;;4951868;28;20400;-89
2021/05/07 09:34:18;;;;;;;0.77;0.77;;;22.40;33.30;;;;;;4960787;28;20392;-90
2021/05/07 09:36:44;;;;;;;1.67;0.85;;;22.70;32.90;;;;;;4957346;28;20083;-88
2021/05/07 09:39:12;;;;;;;1.75;0.85;;;22.90;32.10;;;;;;4958410;28;20027;-89
2021/05/07 09:41:39;;;;;;;3.08;1.05;;;23.00;31.90;;;;;;4952156;28;20058;-88
2021/05/07 09:44:13;;;;;;;2.28;0.88;;;22.90;31.20;;;;;;4964227;28;20027;-89
2021/05/07 09:46:40;;;;;;;1.33;0.88;;;22.70;32.00;;;;;;4953318;28;20122;-89
2021/05/07 09:49:06;;;;;;;1.38;0.98;;;22.60;31.80;;;;;;4963026;28;20031;-91
2021/05/07 09:51:46;;;;;;;0.77;0.77;;;22.50;31.90;;;;;;4962072;28;20077;-90
2021/05/07 09:54:11;;;;;;;0.77;0.75;;;22.60;32.00;;;;;;4981019;28;20023;-89
2021/05/07 09:56:37;;;;;;;1.20;0.80;;;22.70;31.60;;;;;;4960090;28;20082;-89
2021/05/07 09:59:04;;;;;;;1.40;0.73;;;22.50;31.60;;;;;;4960476;28;20042;-91
2021/05/07 10:01:30;;;;;;;1.58;1.10;;;22.40;31.10;;;;;;4960324;28;20032;-89
2021/05/07 10:04:01;;;;;;;1.20;0.82;;;21.90;31.40;;;;;;4955676;28;20058;-87
2021/05/07 10:06:27;;;;;;;1.25;0.90;;;21.70;32.00;;;;;;4961587;28;20058;-89
2021/05/07 10:08:56;;;;;;;1.90;0.80;;;21.70;32.30;;;;;;4958642;28;20385;-93
2021/05/07 10:11:24;;;;;;;0.90;0.52;;;22.00;32.00;;;;;;4962009;28;20023;-90
2021/05/07 10:13:52;;;;;;;1.15;0.90;;;22.40;32.00;;;;;;4959405;28;20044;-93
2021/05/07 10:16:29;;;;;;;1.13;0.75;;;22.70;31.70;;;;;;4964292;28;20026;-90
2021/05/07 10:19:03;;;;;;;3.00;0.85;;;22.80;31.80;;;;;;4958777;28;20032;-91
2021/05/07 10:21:45;;;;;;;1.25;0.82;;;22.80;31.80;;;;;;4956214;28;20043;-91
2021/05/07 10:24:17;;;;;;;1.98;1.00;;;22.60;32.00;;;;;;4954168;28;20035;-91
2021/05/07 10:26:52;;;;;;;1.02;0.80;;;22.40;32.00;;;;;;4956907;28;20034;-91
2021/05/07 10:29:26;;;;;;;1.58;1.00;;;22.30;32.30;;;;;;4958466;28;20031;-90
2021/05/07 10:31:54;;;;;;;1.38;1.10;;;22.60;32.70;;;;;;4966341;28;20040;-90
2021/05/07 10:34:21;;;;;;;1.55;0.73;;;23.00;32.80;;;;;;4967419;28;20038;-91
2021/05/07 10:36:59;;;;;;;2.83;1.00;;;23.70;32.10;;;;;;4962429;28;20161;-90
2021/05/07 10:39:31;;;;;;;0.88;0.80;;;23.90;31.50;;;;;;4984254;28;20027;-91
2021/05/07 10:42:00;;;;;;;0.88;0.60;;;23.80;31.70;;;;;;4963877;28;20039;-90
2021/05/07 10:44:39;;;;;;;1.05;0.70;;;23.40;31.50;;;;;;4946114;28;20065;-90
2021/05/07 10:47:10;;;;;;;1.83;0.80;;;23.00;31.80;;;;;;4964611;28;20054;-90
2021/05/07 10:49:45;;;;;;;2.65;0.82;;;22.60;32.20;;;;;;4961759;28;20028;-90
2021/05/07 10:52:13;;;;;;;3.28;0.93;;;22.10;32.20;;;;;;4957030;28;20039;-90
2021/05/07 10:54:46;;;;;;;1.48;0.98;;;21.80;32.70;;;;;;4949085;28;20038;-92
2021/05/07 11:00:09;;;;;;;1.05;0.75;;;21.20;33.70;;;;;;4945636;28;20027;-91
2021/05/07 11:02:55;;;;;;;4.70;1.25;;;21.00;34.30;;;;;;4959039;28;20142;-93
2021/05/07 11:05:41;;;;;;;1.70;0.80;;;21.10;34.80;;;;;;4955646;28;20027;-91
2021/05/07 11:08:08;;;;;;;1.10;0.80;;;21.20;34.70;;;;;;4960586;28;20058;-93
2021/05/07 11:10:34;;;;;;;0.90;0.80;;;21.30;34.30;;;;;;4954621;28;20015;-90
2021/05/07 11:13:00;;;;;;;1.63;0.95;;;21.30;34.50;;;;;;4964729;28;20037;-93
2021/05/07 11:15:26;;;;;;;2.95;0.88;;;21.20;33.80;;;;;;4956941;28;20042;-92
2021/05/07 11:18:25;;;;;;;3.15;0.98;;;21.00;34.20;;;;;;4964051;28;20110;-92
2021/05/07 11:20:51;;;;;;;1.92;1.17;;;20.70;34.20;;;;;;4963915;28;20031;-91
2021/05/07 11:23:17;;;;;;;6.97;1.20;;;20.40;34.80;;;;;;4964220;28;20125;-91
2021/05/07 11:25:43;;;;;;;2.58;1.20;;;20.10;35.30;;;;;;4952756;28;20142;-92
2021/05/07 11:28:18;;;;;;;1.85;0.98;;;20.00;36.20;;;;;;4958385;28;20114;-91
2021/05/07 11:30:46;;;;;;;1.10;1.00;;;19.80;36.90;;;;;;4937234;28;20031;-93
2021/05/07 11:33:12;;;;;;;1.10;0.85;;;19.60;37.60;;;;;;4955033;28;20039;-90
2021/05/07 11:35:38;;;;;;;1.20;0.85;;;19.50;37.70;;;;;;4960567;28;20027;-91
2021/05/07 11:38:04;;;;;;;2.75;1.00;;;19.40;38.20;;;;;;4962330;28;20027;-91
2021/05/07 11:40:39;;;;;;;2.33;1.00;;;19.20;38.40;;;;;;4949349;28;20029;-92
2021/05/07 11:43:12;;;;;;;1.10;1.00;;;19.10;39.10;;;;;;4966551;28;20042;-91
2021/05/07 11:45:40;;;;;;;3.45;1.17;;;18.90;39.50;;;;;;4975815;28;20027;-89
2021/05/07 11:48:12;;;;;;;2.97;1.48;;;18.80;39.90;;;;;;4964457;28;20039;-90
2021/05/07 11:50:40;;;;;;;3.08;1.20;;;18.70;41.60;;;;;;4972362;28;20022;-91
2021/05/07 11:53:17;;;;;;;3.90;1.05;;;18.40;44.20;;;;;;4962433;28;20085;-90
2021/05/07 11:55:43;;;;;;;1.95;1.25;;;18.20;45.20;;;;;;4957618;28;20031;-91
2021/05/07 11:58:09;;;;;;;2.28;1.20;;;17.90;46.00;;;;;;4953095;28;20377;-90
2021/05/07 12:00:40;;;;;;;3.17;1.10;;;17.80;46.00;;;;;;4960664;28;20409;-90
2021/05/07 12:03:10;;;;;;;1.40;1.10;;;17.60;46.00;;;;;;4975046;28;20046;-90
2021/05/07 12:05:41;;;;;;;2.25;1.20;;;17.50;46.20;;;;;;4971988;28;20085;-92
2021/05/07 12:08:08;;;;;;;3.45;1.10;;;17.50;46.50;;;;;;4958958;28;20054;-90
2021/05/07 12:10:36;;;;;;;2.38;1.27;;;17.50;46.80;;;;;;4952335;28;20092;-90
2021/05/07 12:13:02;;;;;;;1.58;1.00;;;17.40;46.40;;;;;;4958309;28;20038;-89
2021/05/07 12:15:41;;;;;;;1.25;1.00;;;17.50;46.10;;;;;;4957516;28;20023;-90
2021/05/07 12:18:24;;;;;;;1.52;1.10;;;17.60;45.90;;;;;;4957556;28;20036;-89
2021/05/07 12:20:59;;;;;;;1.63;1.10;;;18.00;45.90;;;;;;4968909;28;20510;-88
2021/05/07 12:23:40;;;;;;;1.20;1.10;;;18.50;45.40;;;;;;4950967;28;20126;-88
2021/05/07 12:26:06;;;;;;;1.55;1.23;;;18.70;44.90;;;;;;4950945;28;20044;-87
2021/05/07 12:28:32;;;;;;;1.58;0.95;;;19.00;44.40;;;;;;4953916;28;20027;-88
2021/05/07 12:30:58;;;;;;;4.55;1.02;;;19.20;43.90;;;;;;4952872;28;20028;-88
2021/05/07 12:33:27;;;;;;;2.65;1.50;;;19.50;43.40;;;;;;4944249;29;20039;-89
2021/05/07 12:35:58;;;;;;;2.53;1.13;;;19.90;43.20;;;;;;4950204;28;20070;-89
2021/05/07 12:38:34;;;;;;;1.95;1.30;;;20.10;42.40;;;;;;4950042;29;20035;-89
2021/05/07 12:41:08;;;;;;;3.88;1.10;;;20.10;41.90;;;;;;4961623;28;20464;-88
2021/05/07 12:43:42;;;;;;;0.70;0.70;;;20.00;41.70;;;;;;4969795;28;20050;-88
2021/05/07 12:46:09;;;;;;;3.85;0.82;;;19.80;41.70;;;;;;4948941;28;20484;-88
2021/05/07 12:48:35;;;;;;;4.72;1.30;;;19.70;41.80;;;;;;4952210;29;20031;-89
2021/05/07 12:51:06;;;;;;;1.80;1.08;;;19.50;41.80;;;;;;4954774;28;20027;-88
2021/05/07 12:53:34;;;;;;;1.85;1.30;;;19.30;42.00;;;;;;4953295;29;20024;-89
2021/05/07 12:55:59;;;;;;;1.27;1.17;;;19.20;42.10;;;;;;4934127;29;20101;-88
2021/05/07 12:58:25;;;;;;;3.83;1.40;;;19.00;42.30;;;;;;4954223;28;20123;-87
2021/05/07 13:00:52;;;;;;;2.53;1.30;;;18.90;42.50;;;;;;4954706;28;20031;-88
2021/05/07 13:03:18;;;;;;;1.58;1.40;;;18.90;42.60;;;;;;4953958;29;20039;-87
2021/05/07 13:05:45;;;;;;;2.28;1.40;;;18.90;42.70;;;;;;4953553;28;20536;-89